Time;durP1;ratioP1;P1;durP2;ratioP2;P2;SDS_P1;SDS_P2;PMS_P1;PMS_P2;Temp;Humidity;BMP_temperature;BMP_pressure;BME280_temperature;BME280_humidity;BME280_pressure;Samples;Min_cycle;Max_cycle;Signal;HPM_P1;HPM_P2
2022/01/08 00:01:30;;;;;;;16.67;8.40;;;;;;;;;;5041767;28;20103;-73
2022/01/08 00:03:56;;;;;;;18.67;10.05;;;;;;;;;;5040325;28;20109;-74
2022/01/08 00:06:22;;;;;;;18.40;9.98;;;;;;;;;;5018668;28;20025;-73
2022/01/08 00:08:49;;;;;;;19.83;9.65;;;;;;;;;;5053964;28;20021;-74
2022/01/08 00:11:18;;;;;;;13.45;6.95;;;;;;;;;;5028568;28;20025;-76
2022/01/08 00:13:44;;;;;;;11.13;6.38;;;;;;;;;;5045842;28;20021;-76
2022/01/08 00:16:10;;;;;;;12.45;6.50;;;;;;;;;;5020974;28;20548;-76
2022/01/08 00:18:36;;;;;;;11.95;6.88;;;;;;;;;;5052915;28;20057;-77
2022/01/08 00:21:02;;;;;;;11.52;7.13;;;;;;;;;;5044697;28;20400;-77
2022/01/08 00:23:29;;;;;;;14.45;8.25;;;;;;;;;;5034794;28;20025;-73
2022/01/08 00:25:55;;;;;;;13.95;7.88;;;;;;;;;;5018192;28;20025;-75
2022/01/08 00:28:21;;;;;;;12.48;7.80;;;;;;;;;;5016756;28;20120;-75
2022/01/08 00:30:49;;;;;;;14.13;7.63;;;;;;;;;;5033540;28;20083;-77
2022/01/08 00:33:15;;;;;;;33.65;12.48;;;;;;;;;;5025228;28;20021;-72
2022/01/08 00:35:41;;;;;;;11.77;7.07;;;;;;;;;;5053721;28;20074;-76
2022/01/08 00:38:07;;;;;;;12.10;6.70;;;;;;;;;;5054453;28;20108;-72
2022/01/08 00:40:33;;;;;;;10.15;6.40;;;;;;;;;;5052926;28;20049;-75
2022/01/08 00:42:59;;;;;;;15.43;8.25;;;;;;;;;;5053163;28;20540;-74
2022/01/08 00:45:25;;;;;;;10.43;5.82;;;;;;;;;;5053186;28;20028;-75
2022/01/08 00:47:51;;;;;;;10.13;5.32;;;;;;;;;;5052945;28;20035;-75
2022/01/08 00:50:17;;;;;;;22.05;10.07;;;;;;;;;;5052907;28;20032;-75
2022/01/08 00:52:44;;;;;;;7.10;4.28;;;;;;;;;;5052782;28;20029;-74
2022/01/08 00:55:10;;;;;;;7.18;4.82;;;;;;;;;;5052899;28;20017;-75
2022/01/08 00:57:37;;;;;;;8.38;5.00;;;;;;;;;;5052897;28;20074;-75
2022/01/08 01:00:07;;;;;;;13.73;7.50;;;;;;;;;;5052765;28;20029;-75
2022/01/08 01:02:33;;;;;;;6.90;4.53;;;;;;;;;;5052652;28;20124;-75
2022/01/08 01:04:59;;;;;;;6.65;4.32;;;;;;;;;;5052523;28;20029;-76
2022/01/08 01:07:25;;;;;;;4.88;3.75;;;;;;;;;;5034888;28;20340;-75
2022/01/08 01:09:51;;;;;;;6.35;4.15;;;;;;;;;;5053010;28;20021;-75
2022/01/08 01:12:17;;;;;;;4.63;3.42;;;;;;;;;;5053046;28;20040;-75
2022/01/08 01:14:43;;;;;;;5.13;3.63;;;;;;;;;;5034904;28;20060;-75
2022/01/08 01:17:09;;;;;;;6.00;3.97;;;;;;;;;;5052432;28;20406;-75
2022/01/08 01:19:36;;;;;;;5.10;3.55;;;;;;;;;;5052435;28;20017;-76
2022/01/08 01:22:03;;;;;;;6.32;3.85;;;;;;;;;;5034629;28;20055;-75
2022/01/08 01:24:30;;;;;;;5.35;3.45;;;;;;;;;;5052178;28;20395;-76
2022/01/08 01:41:11;;;;;;;5.25;3.95;;;;;;;;;;5052268;28;20507;-75
2022/01/08 01:48:23;;;;;;;11.93;6.53;;;;;;;;;;5052332;28;20125;-75
2022/01/08 01:50:49;;;;;;;7.97;4.93;;;;;;;;;;5051774;28;20116;-75
2022/01/08 01:53:15;;;;;;;9.07;5.28;;;;;;;;;;5052136;28;20051;-75
2022/01/08 01:55:42;;;;;;;16.10;6.55;;;;;;;;;;5080749;22;20060;-72
2022/01/08 01:58:08;;;;;;;17.35;7.93;;;;;;;;;;5057902;28;20036;-72
2022/01/08 02:00:34;;;;;;;11.45;6.15;;;;;;;;;;5058314;28;20037;-72
2022/01/08 02:03:00;;;;;;;26.45;11.57;;;;;;;;;;5034693;28;20033;-71
2022/01/08 02:05:26;;;;;;;13.20;6.13;;;;;;;;;;5051818;28;20099;-72
2022/01/08 02:07:55;;;;;;;15.93;7.03;;;;;;;;;;5051779;28;20025;-72
2022/01/08 02:10:21;;;;;;;18.70;8.27;;;;;;;;;;5051794;28;20159;-72
2022/01/08 02:12:47;;;;;;;15.93;7.15;;;;;;;;;;5051953;28;20025;-72
2022/01/08 02:15:13;;;;;;;14.25;7.72;;;;;;;;;;5051671;28;20021;-72
2022/01/08 02:17:38;;;;;;;14.82;7.22;;;;;;;;;;5051702;28;20079;-72
2022/01/08 02:20:05;;;;;;;13.32;6.63;;;;;;;;;;5051768;28;20123;-72
2022/01/08 02:22:31;;;;;;;8.32;5.22;;;;;;;;;;5033513;28;20033;-72
2022/01/08 02:24:57;;;;;;;8.88;5.60;;;;;;;;;;5051340;28;20028;-72
2022/01/08 02:27:23;;;;;;;15.07;7.57;;;;;;;;;;5033603;28;20123;-72
2022/01/08 02:29:50;;;;;;;9.77;5.38;;;;;;;;;;5033686;28;20039;-72
2022/01/08 02:32:18;;;;;;;10.27;5.60;;;;;;;;;;5051889;28;20491;-72
2022/01/08 02:34:45;;;;;;;17.30;7.00;;;;;;;;;;5051290;28;20049;-72
2022/01/08 02:37:11;;;;;;;16.35;7.35;;;;;;;;;;5051478;28;20056;-72
2022/01/08 02:39:42;;;;;;;11.70;5.82;;;;;;;;;;5051409;28;20025;-71
2022/01/08 02:42:11;;;;;;;11.00;6.53;;;;;;;;;;5051528;28;20085;-72
2022/01/08 02:44:37;;;;;;;7.35;5.00;;;;;;;;;;5051041;28;20024;-71
2022/01/08 02:47:03;;;;;;;9.13;5.55;;;;;;;;;;5051379;28;20100;-72
2022/01/08 02:49:32;;;;;;;7.15;4.93;;;;;;;;;;5053995;28;20021;-72
2022/01/08 02:51:58;;;;;;;15.77;8.00;;;;;;;;;;5055536;28;20017;-72
2022/01/08 02:54:24;;;;;;;9.55;5.57;;;;;;;;;;5054972;28;20067;-72
2022/01/08 02:56:50;;;;;;;8.07;4.97;;;;;;;;;;5054937;28;20154;-72
2022/01/08 02:59:17;;;;;;;6.63;4.60;;;;;;;;;;5055471;28;20029;-72
2022/01/08 03:01:43;;;;;;;9.40;5.35;;;;;;;;;;5037197;28;20040;-72
2022/01/08 03:04:09;;;;;;;12.57;7.25;;;;;;;;;;5036946;28;20032;-72
2022/01/08 03:06:35;;;;;;;17.70;7.80;;;;;;;;;;5055153;28;20029;-72
2022/01/08 03:09:01;;;;;;;8.52;5.28;;;;;;;;;;5056045;28;20045;-71
2022/01/08 03:11:27;;;;;;;8.98;4.72;;;;;;;;;;5055278;28;20032;-71
2022/01/08 03:13:53;;;;;;;5.43;4.32;;;;;;;;;;5054623;28;20079;-71
2022/01/08 03:16:19;;;;;;;5.28;3.65;;;;;;;;;;5054834;28;20021;-71
2022/01/08 03:18:47;;;;;;;7.07;4.20;;;;;;;;;;5054790;28;20037;-71
2022/01/08 03:21:16;;;;;;;5.80;4.25;;;;;;;;;;5036993;28;20047;-71
2022/01/08 03:23:53;;;;;;;5.10;3.50;;;;;;;;;;5054825;28;20017;-71
2022/01/08 03:26:20;;;;;;;6.22;4.07;;;;;;;;;;5036793;28;20021;-72
2022/01/08 03:28:46;;;;;;;9.32;4.97;;;;;;;;;;5036587;28;20025;-72
2022/01/08 03:31:13;;;;;;;10.07;5.93;;;;;;;;;;5054299;28;20033;-71
2022/01/08 03:33:39;;;;;;;5.25;4.13;;;;;;;;;;5036281;28;20074;-71
2022/01/08 03:36:05;;;;;;;3.72;2.85;;;;;;;;;;5054566;28;20028;-72
2022/01/08 03:38:31;;;;;;;8.63;4.70;;;;;;;;;;5054866;28;20041;-72
2022/01/08 03:40:57;;;;;;;7.60;4.82;;;;;;;;;;5037217;28;20033;-71
2022/01/08 03:43:23;;;;;;;3.88;3.33;;;;;;;;;;5037186;28;20170;-72
2022/01/08 03:45:50;;;;;;;6.57;3.78;;;;;;;;;;5054753;28;20029;-72
2022/01/08 03:50:51;;;;;;;7.13;4.00;;;;;;;;;;5055028;28;20170;-72
2022/01/08 03:53:17;;;;;;;7.85;4.32;;;;;;;;;;5054412;28;20063;-71
2022/01/08 03:55:43;;;;;;;3.08;2.58;;;;;;;;;;5054096;28;20449;-71
2022/01/08 03:58:09;;;;;;;6.35;3.15;;;;;;;;;;5054235;28;20025;-72
2022/01/08 04:00:35;;;;;;;3.45;2.42;;;;;;;;;;5054415;28;20394;-72
2022/01/08 04:03:02;;;;;;;3.30;2.53;;;;;;;;;;5053862;28;20087;-71
2022/01/08 04:05:28;;;;;;;4.05;2.60;;;;;;;;;;5036355;28;20025;-71
2022/01/08 04:07:54;;;;;;;6.68;3.85;;;;;;;;;;5054065;28;20041;-72
2022/01/08 04:10:20;;;;;;;3.67;2.60;;;;;;;;;;5036226;28;20048;-71
2022/01/08 04:12:50;;;;;;;3.78;2.28;;;;;;;;;;5035794;28;20466;-70
2022/01/08 04:17:52;;;;;;;2.17;1.95;;;;;;;;;;5053997;28;20025;-71
2022/01/08 04:20:19;;;;;;;2.35;2.15;;;;;;;;;;5053879;28;20025;-72
2022/01/08 04:22:48;;;;;;;2.38;2.00;;;;;;;;;;5035768;28;20029;-71
2022/01/08 04:25:15;;;;;;;2.63;1.83;;;;;;;;;;5053534;28;20128;-72
2022/01/08 04:27:41;;;;;;;4.05;2.47;;;;;;;;;;5053595;28;20108;-71
2022/01/08 04:30:07;;;;;;;7.50;3.75;;;;;;;;;;5053860;28;20179;-72
2022/01/08 04:32:33;;;;;;;5.68;3.25;;;;;;;;;;5053288;28;20522;-71
2022/01/08 04:34:59;;;;;;;2.78;2.00;;;;;;;;;;5053250;28;20029;-72
2022/01/08 04:37:25;;;;;;;3.65;2.50;;;;;;;;;;5035372;28;20032;-72
2022/01/08 04:39:51;;;;;;;3.13;2.33;;;;;;;;;;5053154;28;20470;-72
2022/01/08 04:42:17;;;;;;;4.45;2.42;;;;;;;;;;5053035;28;20035;-72
2022/01/08 04:44:43;;;;;;;2.83;1.90;;;;;;;;;;5052951;28;20104;-72
2022/01/08 04:47:09;;;;;;;3.42;2.30;;;;;;;;;;5053718;28;20467;-72
2022/01/08 04:49:35;;;;;;;2.65;2.17;;;;;;;;;;5053193;28;20024;-72
2022/01/08 04:52:01;;;;;;;2.92;2.03;;;;;;;;;;5053035;28;20025;-72
2022/01/08 04:54:27;;;;;;;2.85;2.05;;;;;;;;;;5052633;28;20053;-71
2022/01/08 04:56:53;;;;;;;3.85;2.38;;;;;;;;;;5052927;28;20044;-71
2022/01/08 04:59:19;;;;;;;3.15;2.13;;;;;;;;;;5034979;28;20490;-72
2022/01/08 05:01:45;;;;;;;4.07;2.30;;;;;;;;;;5052971;28;20017;-71
2022/01/08 05:04:11;;;;;;;3.08;2.45;;;;;;;;;;5052645;28;20021;-72
2022/01/08 05:06:37;;;;;;;4.40;2.05;;;;;;;;;;5052850;28;20025;-72
2022/01/08 05:09:03;;;;;;;3.72;2.22;;;;;;;;;;5052626;28;20048;-72
2022/01/08 05:11:29;;;;;;;3.33;2.50;;;;;;;;;;5051767;28;20467;-71
2022/01/08 05:13:56;;;;;;;3.67;2.78;;;;;;;;;;5046047;28;20100;-71
2022/01/08 05:16:22;;;;;;;3.72;2.47;;;;;;;;;;5032796;28;20072;-72
2022/01/08 05:18:51;;;;;;;3.50;2.53;;;;;;;;;;5032762;28;20079;-72
2022/01/08 05:21:25;;;;;;;3.42;2.45;;;;;;;;;;5033067;28;20022;-72
2022/01/08 05:23:51;;;;;;;2.92;2.35;;;;;;;;;;5032120;28;20106;-71
2022/01/08 05:26:17;;;;;;;3.05;2.35;;;;;;;;;;5032440;28;20108;-71
2022/01/08 05:28:44;;;;;;;4.05;2.60;;;;;;;;;;5014602;28;20117;-70
2022/01/08 05:31:10;;;;;;;4.28;2.60;;;;;;;;;;5032465;28;20049;-71
2022/01/08 05:33:36;;;;;;;2.28;2.05;;;;;;;;;;5032114;28;20026;-71
2022/01/08 05:36:02;;;;;;;2.60;2.30;;;;;;;;;;5032605;28;20056;-71
2022/01/08 05:38:28;;;;;;;4.63;2.42;;;;;;;;;;5032260;28;20024;-71
2022/01/08 05:40:54;;;;;;;3.53;2.47;;;;;;;;;;5032154;28;20029;-70
2022/01/08 05:43:20;;;;;;;3.67;2.63;;;;;;;;;;5032291;28;20509;-72
2022/01/08 05:45:46;;;;;;;4.07;3.00;;;;;;;;;;5032125;28;20442;-71
2022/01/08 05:48:13;;;;;;;2.92;2.28;;;;;;;;;;5032090;28;20035;-72
2022/01/08 05:50:39;;;;;;;4.57;2.70;;;;;;;;;;5031932;28;20025;-71
2022/01/08 05:53:05;;;;;;;3.05;2.63;;;;;;;;;;5031888;28;20078;-70
2022/01/08 05:55:31;;;;;;;3.20;2.60;;;;;;;;;;5031834;28;20472;-71
2022/01/08 05:57:57;;;;;;;2.42;2.00;;;;;;;;;;5014821;28;20471;-71
2022/01/08 06:00:23;;;;;;;5.25;2.20;;;;;;;;;;5031856;28;20037;-71
2022/01/08 06:02:49;;;;;;;2.45;2.05;;;;;;;;;;5013990;28;20534;-71
2022/01/08 06:05:15;;;;;;;3.60;2.45;;;;;;;;;;5014331;28;20056;-71
2022/01/08 06:07:41;;;;;;;3.03;2.28;;;;;;;;;;5014191;28;20395;-71
2022/01/08 06:10:08;;;;;;;3.63;2.80;;;;;;;;;;5032191;28;20028;-71
2022/01/08 06:12:34;;;;;;;2.92;2.50;;;;;;;;;;5031862;28;20025;-71
2022/01/08 06:15:00;;;;;;;6.97;3.67;;;;;;;;;;5031552;28;20426;-71
2022/01/08 06:17:26;;;;;;;4.72;3.28;;;;;;;;;;5031645;28;20032;-72
2022/01/08 06:19:52;;;;;;;4.70;3.40;;;;;;;;;;5031773;28;20048;-72
2022/01/08 06:22:18;;;;;;;7.40;3.90;;;;;;;;;;5032744;28;20025;-72
2022/01/08 06:24:44;;;;;;;9.23;5.35;;;;;;;;;;5035624;28;20033;-72
2022/01/08 06:27:10;;;;;;;9.68;5.90;;;;;;;;;;5035928;28;20112;-72
2022/01/08 06:29:35;;;;;;;8.25;5.70;;;;;;;;;;5035911;28;20041;-72
2022/01/08 06:32:01;;;;;;;10.73;6.68;;;;;;;;;;5017933;28;20030;-71
2022/01/08 06:34:27;;;;;;;13.43;7.70;;;;;;;;;;5035315;28;20021;-71
2022/01/08 06:36:53;;;;;;;14.75;7.25;;;;;;;;;;5035476;28;20101;-71
2022/01/08 06:39:19;;;;;;;12.80;7.68;;;;;;;;;;5035910;28;20383;-71
2022/01/08 06:41:45;;;;;;;13.75;7.70;;;;;;;;;;5017969;28;20025;-71
2022/01/08 06:44:11;;;;;;;12.15;7.43;;;;;;;;;;5035071;28;20087;-71
2022/01/08 06:46:37;;;;;;;10.68;6.50;;;;;;;;;;5035323;28;20036;-71
2022/01/08 06:49:03;;;;;;;12.90;7.63;;;;;;;;;;5035409;28;20399;-72
2022/01/08 06:51:29;;;;;;;13.50;8.00;;;;;;;;;;5035367;28;20066;-72
2022/01/08 06:53:55;;;;;;;15.60;7.82;;;;;;;;;;5017188;28;20025;-72
2022/01/08 06:56:21;;;;;;;11.98;7.72;;;;;;;;;;5017323;28;20052;-72
2022/01/08 06:58:48;;;;;;;10.85;6.85;;;;;;;;;;5035051;28;20029;-72
2022/01/08 07:01:13;;;;;;;12.10;7.03;;;;;;;;;;5035036;28;20039;-72
2022/01/08 07:03:39;;;;;;;11.60;7.25;;;;;;;;;;5035054;28;20096;-72
2022/01/08 07:06:05;;;;;;;11.60;7.82;;;;;;;;;;5017376;28;20026;-72
2022/01/08 07:08:31;;;;;;;13.20;7.88;;;;;;;;;;5017401;28;20060;-72
2022/01/08 07:10:58;;;;;;;13.60;8.15;;;;;;;;;;5017158;28;20498;-72
2022/01/08 07:13:24;;;;;;;14.40;8.93;;;;;;;;;;5034613;28;20063;-71
2022/01/08 07:15:50;;;;;;;15.57;9.48;;;;;;;;;;5035143;28;20388;-71
2022/01/08 07:18:16;;;;;;;15.50;9.18;;;;;;;;;;5017150;28;20025;-70
2022/01/08 07:20:41;;;;;;;17.92;10.05;;;;;;;;;;5034756;28;20037;-71
2022/01/08 07:23:07;;;;;;;17.95;11.32;;;;;;;;;;5034664;28;20094;-71
2022/01/08 07:25:33;;;;;;;19.65;9.93;;;;;;;;;;5034351;28;20108;-71
2022/01/08 07:27:59;;;;;;;16.48;10.25;;;;;;;;;;5034717;28;20025;-71
2022/01/08 07:30:25;;;;;;;17.70;11.35;;;;;;;;;;5034601;28;20368;-71
2022/01/08 07:32:52;;;;;;;17.40;10.32;;;;;;;;;;5034699;28;20029;-70
2022/01/08 07:35:21;;;;;;;17.08;10.07;;;;;;;;;;5033903;28;20067;-71
2022/01/08 07:37:48;;;;;;;15.70;9.65;;;;;;;;;;5034445;28;20036;-71
2022/01/08 07:40:14;;;;;;;14.63;9.07;;;;;;;;;;5016828;28;20029;-71
2022/01/08 07:42:40;;;;;;;14.45;8.30;;;;;;;;;;5016946;28;20053;-70
2022/01/08 07:45:07;;;;;;;14.60;8.75;;;;;;;;;;5034416;28;20087;-71
2022/01/08 07:47:33;;;;;;;14.82;9.40;;;;;;;;;;5016515;28;20037;-71
2022/01/08 07:49:59;;;;;;;14.23;8.52;;;;;;;;;;5016582;28;20399;-71
2022/01/08 07:52:25;;;;;;;12.48;8.18;;;;;;;;;;5034278;28;20049;-72
2022/01/08 07:54:51;;;;;;;14.40;9.18;;;;;;;;;;5033979;28;20037;-72
2022/01/08 07:57:17;;;;;;;14.13;7.68;;;;;;;;;;5084084;22;20068;-70
2022/01/08 07:59:43;;;;;;;12.45;7.72;;;;;;;;;;5074069;28;20126;-70
2022/01/08 08:02:12;;;;;;;14.95;8.85;;;;;;;;;;5073934;28;20032;-70
2022/01/08 08:04:39;;;;;;;12.45;7.70;;;;;;;;;;5073679;28;20449;-70
2022/01/08 08:07:05;;;;;;;13.45;8.80;;;;;;;;;;5074068;28;20025;-70
2022/01/08 08:09:31;;;;;;;15.27;9.00;;;;;;;;;;5072697;28;20028;-71
2022/01/08 08:11:57;;;;;;;11.98;7.43;;;;;;;;;;5073769;28;20044;-71
2022/01/08 08:14:23;;;;;;;12.55;7.57;;;;;;;;;;5073486;28;20073;-71
2022/01/08 08:16:49;;;;;;;10.82;7.22;;;;;;;;;;5073610;28;20025;-72
2022/01/08 08:19:16;;;;;;;12.48;7.72;;;;;;;;;;5073561;28;20032;-71
2022/01/08 08:21:42;;;;;;;12.48;6.95;;;;;;;;;;5073382;28;20081;-71
2022/01/08 08:24:08;;;;;;;9.80;6.25;;;;;;;;;;5073449;28;20050;-70
2022/01/08 08:26:34;;;;;;;10.15;6.70;;;;;;;;;;5073512;28;20086;-70
2022/01/08 08:29:00;;;;;;;10.13;6.53;;;;;;;;;;5073175;28;20106;-71
2022/01/08 08:31:26;;;;;;;8.93;5.97;;;;;;;;;;5055275;28;20029;-71
2022/01/08 08:33:52;;;;;;;9.80;5.97;;;;;;;;;;5073285;28;20028;-70
2022/01/08 08:36:18;;;;;;;10.18;6.40;;;;;;;;;;5073259;28;20320;-69
2022/01/08 08:38:44;;;;;;;9.20;5.32;;;;;;;;;;5073612;28;20021;-70
2022/01/08 08:41:11;;;;;;;11.27;6.97;;;;;;;;;;5073226;28;20025;-69
2022/01/08 08:43:37;;;;;;;13.25;7.10;;;;;;;;;;5072513;28;20021;-71
2022/01/08 08:46:04;;;;;;;12.15;7.35;;;;;;;;;;5071937;28;20025;-71
2022/01/08 08:48:30;;;;;;;12.45;7.93;;;;;;;;;;5073015;28;20052;-73
2022/01/08 08:50:56;;;;;;;15.07;8.40;;;;;;;;;;5073027;28;20509;-73
2022/01/08 08:53:22;;;;;;;13.40;8.57;;;;;;;;;;5072980;28;20020;-72
2022/01/08 08:55:48;;;;;;;15.45;8.60;;;;;;;;;;5054744;28;20042;-71
2022/01/08 08:58:14;;;;;;;14.48;8.80;;;;;;;;;;5072818;28;20447;-71
2022/01/08 09:00:40;;;;;;;11.57;7.57;;;;;;;;;;5038675;28;20032;-72
2022/01/08 09:03:07;;;;;;;13.05;8.48;;;;;;;;;;5054543;28;20055;-70
2022/01/08 09:05:33;;;;;;;13.40;8.52;;;;;;;;;;5069267;28;20043;-69
2022/01/08 09:07:59;;;;;;;13.10;7.60;;;;;;;;;;5034786;28;20487;-69
2022/01/08 09:10:25;;;;;;;15.40;9.13;;;;;;;;;;5051117;28;20058;-71
2022/01/08 09:12:52;;;;;;;13.55;9.05;;;;;;;;;;5032734;28;20028;-70
2022/01/08 09:15:24;;;;;;;16.52;8.85;;;;;;;;;;5032765;28;20032;-71
2022/01/08 09:17:51;;;;;;;14.00;8.70;;;;;;;;;;5050522;28;20538;-70
2022/01/08 09:20:17;;;;;;;14.02;8.57;;;;;;;;;;5050889;28;20033;-70
2022/01/08 09:22:43;;;;;;;15.40;8.77;;;;;;;;;;5050754;28;20064;-70
2022/01/08 09:25:10;;;;;;;13.23;7.93;;;;;;;;;;5050764;28;20419;-69
2022/01/08 09:27:36;;;;;;;13.63;8.38;;;;;;;;;;5034606;28;20498;-71
2022/01/08 09:30:04;;;;;;;11.98;8.45;;;;;;;;;;5058331;28;20071;-70
2022/01/08 09:32:30;;;;;;;14.13;8.23;;;;;;;;;;5034564;28;20029;-70
2022/01/08 09:34:56;;;;;;;14.18;9.13;;;;;;;;;;5052423;28;20088;-70
2022/01/08 09:37:22;;;;;;;13.10;8.90;;;;;;;;;;5034499;28;20029;-71
2022/01/08 09:39:48;;;;;;;16.70;9.77;;;;;;;;;;5052607;28;20067;-70
2022/01/08 09:42:14;;;;;;;15.32;9.93;;;;;;;;;;5034270;28;20017;-70
2022/01/08 09:44:44;;;;;;;16.27;11.13;;;;;;;;;;5052059;28;20513;-68
2022/01/08 09:47:10;;;;;;;19.23;11.82;;;;;;;;;;5034138;28;20032;-69
2022/01/08 09:49:36;;;;;;;18.70;11.60;;;;;;;;;;5034475;28;20074;-70
2022/01/08 09:52:03;;;;;;;19.23;12.05;;;;;;;;;;5052212;28;20480;-70
2022/01/08 09:54:30;;;;;;;17.80;11.70;;;;;;;;;;5051751;28;20509;-69
2022/01/08 09:56:56;;;;;;;20.00;12.20;;;;;;;;;;5051539;28;20409;-70
2022/01/08 09:59:22;;;;;;;23.55;12.77;;;;;;;;;;5052466;28;20021;-70
2022/01/08 10:01:59;;;;;;;23.90;14.75;;;;;;;;;;5051773;28;20032;-70
2022/01/08 10:04:29;;;;;;;20.77;13.80;;;;;;;;;;5033693;28;20513;-70
2022/01/08 10:07:14;;;;;;;24.70;14.70;;;;;;;;;;5051789;28;20025;-70
2022/01/08 10:09:57;;;;;;;22.80;14.25;;;;;;;;;;5051841;28;20025;-70
2022/01/08 10:12:35;;;;;;;25.42;14.70;;;;;;;;;;5051943;28;20487;-71
2022/01/08 10:17:46;;;;;;;25.25;16.08;;;;;;;;;;5052120;28;20453;-70
2022/01/08 10:20:12;;;;;;;21.60;15.10;;;;;;;;;;5034181;28;20075;-70
2022/01/08 10:22:38;;;;;;;26.42;16.50;;;;;;;;;;5033368;28;20135;-71
2022/01/08 10:25:11;;;;;;;29.02;16.95;;;;;;;;;;5033914;28;20060;-72
2022/01/08 10:27:37;;;;;;;28.17;18.10;;;;;;;;;;5051725;28;20112;-72
2022/01/08 10:30:05;;;;;;;26.92;16.98;;;;;;;;;;5052232;28;20032;-72
2022/01/08 10:32:31;;;;;;;28.40;18.13;;;;;;;;;;5052073;28;20071;-74
2022/01/08 10:34:57;;;;;;;24.80;16.48;;;;;;;;;;5051761;28;20527;-74
2022/01/08 10:37:23;;;;;;;31.60;19.92;;;;;;;;;;5050997;28;20400;-72
2022/01/08 10:39:54;;;;;;;31.52;18.42;;;;;;;;;;5051409;28;20102;-72
2022/01/08 10:42:21;;;;;;;33.42;19.45;;;;;;;;;;5051399;28;20350;-73
2022/01/08 10:44:51;;;;;;;30.33;18.90;;;;;;;;;;5051166;28;20033;-72
2022/01/08 10:47:17;;;;;;;34.42;20.65;;;;;;;;;;5051583;28;20036;-72
2022/01/08 10:50:28;;;;;;;32.13;20.05;;;;;;;;;;5055409;28;20112;-80
2022/01/08 10:52:54;;;;;;;31.80;19.98;;;;;;;;;;5042245;28;20021;-68
2022/01/08 10:55:30;;;;;;;33.63;20.33;;;;;;;;;;5070242;28;20012;-70
2022/01/08 10:57:56;;;;;;;32.65;20.90;;;;;;;;;;5069734;28;20024;-68
2022/01/08 11:00:29;;;;;;;33.00;20.25;;;;;;;;;;5069960;28;20100;-64
2022/01/08 11:03:04;;;;;;;31.05;20.65;;;;;;;;;;5069469;28;20021;-71
2022/01/08 11:05:30;;;;;;;33.60;19.98;;;;;;;;;;5058996;28;20065;-69
2022/01/08 11:08:13;;;;;;;35.30;21.50;;;;;;;;;;5048915;28;20025;-74
2022/01/08 11:10:39;;;;;;;28.27;18.65;;;;;;;;;;5034631;28;20540;-73
2022/01/08 11:13:06;;;;;;;31.45;19.98;;;;;;;;;;5035728;28;20049;-72
2022/01/08 11:15:48;;;;;;;33.00;21.52;;;;;;;;;;5053549;28;20021;-71
2022/01/08 11:18:17;;;;;;;32.58;21.23;;;;;;;;;;5053688;28;20025;-73
2022/01/08 11:20:44;;;;;;;34.22;22.05;;;;;;;;;;5053533;28;20095;-71
2022/01/08 11:23:11;;;;;;;34.72;21.77;;;;;;;;;;5053359;28;20125;-72
2022/01/08 11:25:38;;;;;;;31.00;20.23;;;;;;;;;;5053254;28;20033;-71
2022/01/08 11:28:08;;;;;;;36.35;22.98;;;;;;;;;;5035831;28;20070;-71
2022/01/08 11:30:37;;;;;;;38.55;23.65;;;;;;;;;;5053620;28;20021;-72
2022/01/08 11:33:09;;;;;;;39.25;22.58;;;;;;;;;;5053235;28;20028;-71
2022/01/08 11:35:36;;;;;;;46.25;24.27;;;;;;;;;;5036406;28;20017;-72
2022/01/08 11:38:06;;;;;;;41.17;24.33;;;;;;;;;;5053917;28;20028;-75
2022/01/08 11:40:32;;;;;;;35.20;21.88;;;;;;;;;;5053749;28;20024;-74
2022/01/08 11:43:04;;;;;;;36.17;22.50;;;;;;;;;;5071772;28;20099;-74
2022/01/08 11:45:35;;;;;;;40.72;24.50;;;;;;;;;;5073522;28;20036;-74
2022/01/08 11:48:02;;;;;;;33.80;21.40;;;;;;;;;;5073214;28;20162;-75
2022/01/08 11:50:29;;;;;;;33.85;21.25;;;;;;;;;;5055601;28;20036;-75
2022/01/08 11:53:14;;;;;;;36.72;21.38;;;;;;;;;;5055994;28;20070;-75
2022/01/08 11:55:41;;;;;;;38.58;21.00;;;;;;;;;;5073903;28;20017;-74
2022/01/08 11:58:23;;;;;;;37.38;23.45;;;;;;;;;;5066452;28;20029;-73
2022/01/08 12:00:52;;;;;;;42.65;24.23;;;;;;;;;;5035753;28;20124;-69
2022/01/08 12:03:37;;;;;;;36.92;22.40;;;;;;;;;;5052929;28;20070;-72
2022/01/08 12:06:22;;;;;;;38.53;24.20;;;;;;;;;;5052833;28;20512;-72
2022/01/08 12:08:57;;;;;;;34.17;21.38;;;;;;;;;;5053189;28;20025;-72
2022/01/08 12:11:23;;;;;;;40.85;24.83;;;;;;;;;;5053659;28;20036;-72
2022/01/08 12:13:50;;;;;;;40.72;22.08;;;;;;;;;;5053082;28;20104;-72
2022/01/08 12:16:34;;;;;;;38.47;23.25;;;;;;;;;;5053230;28;20017;-73
2022/01/08 12:19:02;;;;;;;36.03;22.88;;;;;;;;;;5038719;28;20025;-72
2022/01/08 12:21:31;;;;;;;35.60;22.45;;;;;;;;;;5072876;28;20478;-73
2022/01/08 12:23:59;;;;;;;38.75;22.60;;;;;;;;;;5072582;28;20405;-72
2022/01/08 12:26:25;;;;;;;42.78;23.25;;;;;;;;;;5072836;28;20032;-74
2022/01/08 12:28:56;;;;;;;38.10;21.80;;;;;;;;;;5055129;28;20032;-72
2022/01/08 12:31:29;;;;;;;44.58;24.52;;;;;;;;;;5072336;28;20020;-73
2022/01/08 12:34:16;;;;;;;37.30;22.55;;;;;;;;;;5054067;28;20024;-74
2022/01/08 12:37:20;;;;;;;35.20;22.60;;;;;;;;;;5060039;28;20092;-72
2022/01/08 12:39:49;;;;;;;42.22;22.65;;;;;;;;;;4983572;28;20236;-74
2022/01/08 12:42:21;;;;;;;34.70;21.20;;;;;;;;;;4973579;28;20023;-71
2022/01/08 12:45:06;;;;;;;38.95;24.35;;;;;;;;;;5027388;28;20064;-73
2022/01/08 12:47:38;;;;;;;32.33;20.38;;;;;;;;;;5062906;28;20367;-71
2022/01/08 12:50:16;;;;;;;30.10;20.40;;;;;;;;;;5055804;28;20467;-72
2022/01/08 12:53:01;;;;;;;33.63;19.38;;;;;;;;;;5066793;28;20086;-69
2022/01/08 12:55:27;;;;;;;35.55;21.17;;;;;;;;;;5061378;28;20028;-71
2022/01/08 12:57:53;;;;;;;35.95;21.17;;;;;;;;;;5070083;28;20035;-72
2022/01/08 13:00:19;;;;;;;35.28;21.10;;;;;;;;;;5062379;28;20020;-72
2022/01/08 13:02:47;;;;;;;37.65;22.10;;;;;;;;;;5059340;28;20021;-72
2022/01/08 13:05:13;;;;;;;49.75;28.58;;;;;;;;;;5057577;28;20029;-70
2022/01/08 13:07:48;;;;;;;59.40;33.63;;;;;;;;;;5069203;28;20020;-71
2022/01/08 13:10:16;;;;;;;57.83;31.40;;;;;;;;;;5054628;28;20235;-71
2022/01/08 13:12:42;;;;;;;48.05;28.73;;;;;;;;;;5066084;28;20051;-70
2022/01/08 13:15:08;;;;;;;47.63;26.15;;;;;;;;;;5057535;28;20404;-74
2022/01/08 13:17:34;;;;;;;42.75;24.85;;;;;;;;;;5058821;28;20036;-70
2022/01/08 13:20:04;;;;;;;43.97;25.27;;;;;;;;;;5066248;28;20029;-72
2022/01/08 13:22:31;;;;;;;40.72;22.92;;;;;;;;;;5055034;28;20035;-72
2022/01/08 13:24:57;;;;;;;39.72;23.33;;;;;;;;;;5059360;28;20017;-72
2022/01/08 13:27:24;;;;;;;43.42;24.75;;;;;;;;;;5059572;28;20383;-71
2022/01/08 13:29:55;;;;;;;37.67;24.52;;;;;;;;;;5058140;28;20025;-73
2022/01/08 13:32:24;;;;;;;45.97;27.40;;;;;;;;;;5066609;28;20464;-70
2022/01/08 13:35:00;;;;;;;44.42;25.17;;;;;;;;;;5056228;28;20029;-70
2022/01/08 13:37:30;;;;;;;41.78;25.38;;;;;;;;;;5068113;28;20099;-73
2022/01/08 13:40:01;;;;;;;43.25;26.90;;;;;;;;;;5061660;28;20132;-73
2022/01/08 13:42:30;;;;;;;41.60;26.38;;;;;;;;;;5054141;28;20104;-73
2022/01/08 13:45:15;;;;;;;39.72;24.13;;;;;;;;;;5064153;28;20021;-69
2022/01/08 13:47:45;;;;;;;37.10;23.30;;;;;;;;;;5063185;28;20343;-70
2022/01/08 13:50:23;;;;;;;37.97;23.52;;;;;;;;;;5070470;28;20080;-70
2022/01/08 13:52:53;;;;;;;46.08;26.17;;;;;;;;;;5055549;28;20028;-70
2022/01/08 13:55:26;;;;;;;38.83;24.67;;;;;;;;;;5061116;28;20045;-74
2022/01/08 13:58:02;;;;;;;33.70;21.33;;;;;;;;;;5075689;22;20053;-73
2022/01/08 14:00:28;;;;;;;38.35;21.88;;;;;;;;;;5009309;28;20025;-74
2022/01/08 14:02:56;;;;;;;38.65;23.08;;;;;;;;;;5016713;28;20022;-72
2022/01/08 14:05:22;;;;;;;36.83;22.35;;;;;;;;;;5020950;28;20060;-74
2022/01/08 14:07:48;;;;;;;33.83;21.23;;;;;;;;;;5024720;28;20025;-74
2022/01/08 14:10:15;;;;;;;35.25;21.58;;;;;;;;;;5014482;28;20037;-72
2022/01/08 14:12:59;;;;;;;32.65;20.70;;;;;;;;;;5026476;28;20018;-70
2022/01/08 14:15:26;;;;;;;36.92;21.92;;;;;;;;;;5004212;28;20503;-73
2022/01/08 14:17:52;;;;;;;34.40;22.13;;;;;;;;;;5017163;28;20439;-73
2022/01/08 14:20:22;;;;;;;42.55;23.15;;;;;;;;;;5026983;28;20085;-72
2022/01/08 14:22:48;;;;;;;39.03;23.23;;;;;;;;;;5009319;28;20101;-72
2022/01/08 14:25:21;;;;;;;36.60;21.48;;;;;;;;;;5015216;28;20108;-70
2022/01/08 14:27:47;;;;;;;34.70;21.13;;;;;;;;;;5023925;28;20026;-71
2022/01/08 14:30:13;;;;;;;35.20;21.40;;;;;;;;;;4996372;28;20799;-70
2022/01/08 14:32:44;;;;;;;33.22;19.63;;;;;;;;;;5022607;28;20022;-70
2022/01/08 14:35:10;;;;;;;29.85;16.70;;;;;;;;;;5002984;28;20037;-72
2022/01/08 14:37:41;;;;;;;30.80;17.90;;;;;;;;;;5022825;28;20025;-72
2022/01/08 14:40:20;;;;;;;24.92;15.15;;;;;;;;;;4992756;28;20567;-71
2022/01/08 14:42:47;;;;;;;23.38;14.32;;;;;;;;;;5005797;28;20021;-71
2022/01/08 14:45:17;;;;;;;19.90;12.82;;;;;;;;;;5024937;28;20368;-71
2022/01/08 14:47:43;;;;;;;18.73;11.20;;;;;;;;;;5030326;28;20033;-70
2022/01/08 14:50:11;;;;;;;19.95;10.77;;;;;;;;;;5018865;28;20275;-73
2022/01/08 14:52:39;;;;;;;19.02;11.13;;;;;;;;;;5012668;28;20267;-69
2022/01/08 14:55:06;;;;;;;28.92;13.48;;;;;;;;;;5021992;28;20018;-71
2022/01/08 14:57:32;;;;;;;13.73;8.82;;;;;;;;;;5005266;28;20455;-72
2022/01/08 15:00:00;;;;;;;14.88;8.35;;;;;;;;;;5029321;28;20053;-71